Bristol, New Hampshire
Current Conditions -  °F | °C
As of 4:35 PM on Thursday 23 Oct 2014 (Local Time) from K1P1 Reporting Station
Moderate Rain Moderate Rain  
Wind Chill: 50°   Ceiling: 3100
Heat Index: 50°   Visibility: 7mi
Dew Point: 50°   Wind: 0mph
Humidity: 100%   Direction: NA
Pressure: 29.76"   Gusts: NA
Location:  43.6°N, 71.75°W
Report Text: K1P1 232035Z AUTO 00000KT 7SM RA OVC031 10/10 A2976 RMK AO2 P0009 T01010101
Loading
Personal Weather Stations






























Interactive Weather Map New forecast layout! Learn more

10-Day Weather Forecast

Advertisements
Track Severe Weather on mobile